Time;durP1;ratioP1;P1;durP2;ratioP2;P2;SDS_P1;SDS_P2;PMS_P1;PMS_P2;Temp;Humidity;BMP_temperature;BMP_pressure;BME280_temperature;BME280_humidity;BME280_pressure;Samples;Min_cycle;Max_cycle;Signal;HPM_P1;HPM_P2
2022/11/01 00:01:55;;;;;;;9.90;3.75;;;18.30;99.90;;;;;;5071340;28;19904;-82
2022/11/01 00:04:22;;;;;;;6.95;3.85;;;18.30;99.90;;;;;;5070896;28;20059;-82
2022/11/01 00:06:49;;;;;;;7.32;3.60;;;18.30;99.90;;;;;;5070708;28;20024;-84
2022/11/01 00:09:15;;;;;;;10.63;4.03;;;18.40;99.90;;;;;;5070997;28;20588;-83
2022/11/01 00:11:41;;;;;;;7.15;4.15;;;18.40;99.90;;;;;;5070987;28;20024;-82
2022/11/01 00:14:13;;;;;;;8.27;4.18;;;18.40;99.90;;;;;;5070942;28;20086;-83
2022/11/01 00:16:40;;;;;;;7.88;3.97;;;18.40;99.90;;;;;;5070699;28;20436;-83
2022/11/01 00:19:06;;;;;;;7.47;3.88;;;18.40;99.90;;;;;;5070456;28;20040;-83
2022/11/01 00:21:32;;;;;;;7.97;3.30;;;18.30;99.90;;;;;;5071373;28;20029;-83
2022/11/01 00:23:58;;;;;;;8.20;3.47;;;18.30;99.90;;;;;;5069174;28;20262;-82
2022/11/01 00:26:25;;;;;;;8.30;3.40;;;18.30;99.90;;;;;;5070438;28;20358;-83
2022/11/01 00:28:52;;;;;;;8.90;4.22;;;18.30;99.90;;;;;;5069312;28;20074;-82
2022/11/01 00:31:48;;;;;;;7.13;3.65;;;18.20;99.90;;;;;;5070318;28;20344;-83
2022/11/01 00:34:15;;;;;;;8.50;3.38;;;18.20;99.90;;;;;;5070190;28;20052;-84
2022/11/01 00:36:41;;;;;;;7.07;3.05;;;18.20;99.90;;;;;;5070464;28;20024;-83
2022/11/01 00:39:11;;;;;;;7.45;3.53;;;18.30;99.90;;;;;;5070467;28;20028;-83
2022/11/01 00:41:37;;;;;;;8.85;3.72;;;18.20;99.90;;;;;;5070033;28;20479;-83
2022/11/01 00:44:04;;;;;;;6.45;3.58;;;18.30;99.90;;;;;;5069960;28;20150;-83
2022/11/01 00:46:31;;;;;;;;;;;18.20;99.90;;;;;;5070498;28;20100;-83
2022/11/01 00:48:57;;;;;;;;;;;18.20;99.90;;;;;;5070675;28;19911;-81
2022/11/01 00:51:23;;;;;;;8.38;3.65;;;18.20;99.90;;;;;;5070306;28;19904;-83
2022/11/01 00:53:49;;;;;;;7.00;3.77;;;18.20;99.90;;;;;;5068543;28;20021;-83
2022/11/01 00:56:15;;;;;;;7.60;3.80;;;18.20;99.90;;;;;;5070122;28;20341;-83
2022/11/01 00:58:42;;;;;;;8.63;3.92;;;18.20;99.90;;;;;;5070412;28;20571;-83
2022/11/01 01:01:08;;;;;;;7.28;3.80;;;18.20;99.90;;;;;;5070424;28;20027;-82
2022/11/01 01:03:47;;;;;;;7.60;3.88;;;18.20;99.90;;;;;;5070935;28;20028;-83
2022/11/01 01:06:13;;;;;;;7.15;3.72;;;18.10;99.90;;;;;;5071760;28;20140;-83
2022/11/01 01:08:39;;;;;;;6.78;3.45;;;18.10;99.90;;;;;;5073172;28;20024;-83
2022/11/01 01:11:06;;;;;;;10.23;4.13;;;18.10;99.90;;;;;;5074654;28;20040;-83
2022/11/01 01:13:31;;;;;;;;;;;18.10;99.90;;;;;;5073630;28;20024;-82
2022/11/01 01:15:57;;;;;;;7.82;3.78;;;18.00;99.90;;;;;;5074591;28;19904;-83
2022/11/01 01:18:23;;;;;;;8.63;3.88;;;18.00;99.90;;;;;;5074773;28;20033;-83
2022/11/01 01:20:49;;;;;;;7.70;4.23;;;17.90;99.90;;;;;;5074487;28;20432;-82
2022/11/01 01:23:15;;;;;;;6.93;3.87;;;17.90;99.90;;;;;;5074345;28;20300;-82
2022/11/01 01:25:42;;;;;;;8.10;3.97;;;17.90;99.90;;;;;;5074308;28;20286;-83
2022/11/01 01:28:08;;;;;;;9.50;3.90;;;17.80;99.90;;;;;;5074524;28;20267;-82
2022/11/01 01:30:38;;;;;;;6.40;3.72;;;17.80;99.90;;;;;;5074350;28;20096;-82
2022/11/01 01:33:06;;;;;;;10.80;4.32;;;17.90;99.90;;;;;;5074395;28;20119;-82
2022/11/01 01:35:32;;;;;;;13.27;4.05;;;17.80;99.90;;;;;;5074345;28;20054;-83
2022/11/01 01:37:58;;;;;;;10.98;4.03;;;17.80;99.90;;;;;;5074040;28;20028;-81
2022/11/01 01:40:24;;;;;;;7.45;4.35;;;17.70;99.90;;;;;;5074208;28;20020;-81
2022/11/01 01:42:50;;;;;;;8.43;4.40;;;17.70;99.90;;;;;;5072635;28;20070;-82
2022/11/01 01:45:36;;;;;;;5.53;2.88;;;17.60;99.90;;;;;;5074296;28;20094;-82
2022/11/01 01:48:11;;;;;;;6.80;4.20;;;17.60;99.90;;;;;;5074239;28;20518;-82
2022/11/01 01:50:45;;;;;;;6.95;3.72;;;17.60;99.90;;;;;;5074488;28;20024;-83
2022/11/01 01:53:15;;;;;;;6.57;4.22;;;17.50;99.90;;;;;;5072614;28;20033;-82
2022/11/01 01:55:50;;;;;;;8.90;3.88;;;17.50;99.90;;;;;;5074526;28;20033;-82
2022/11/01 01:58:19;;;;;;;11.82;3.83;;;17.50;99.90;;;;;;5074401;28;20179;-83
2022/11/01 02:00:45;;;;;;;8.13;4.32;;;17.30;99.90;;;;;;5073835;28;20491;-83
2022/11/01 02:03:11;;;;;;;7.50;3.75;;;17.20;99.90;;;;;;5074121;28;20051;-80
2022/11/01 02:06:02;;;;;;;9.02;3.97;;;17.20;99.90;;;;;;5073881;28;20120;-81
2022/11/01 02:08:29;;;;;;;8.18;4.20;;;17.20;99.90;;;;;;5073651;28;20388;-81
2022/11/01 02:11:00;;;;;;;;;;;17.20;99.90;;;;;;5074240;28;20530;-81
2022/11/01 02:13:27;;;;;;;6.43;3.80;;;17.30;99.90;;;;;;5073803;28;19948;-80
2022/11/01 02:16:24;;;;;;;8.43;4.05;;;17.30;99.90;;;;;;5071937;28;20044;-80
2022/11/01 02:19:15;;;;;;;8.27;4.72;;;17.30;99.90;;;;;;5070933;28;20104;-81
2022/11/01 02:22:29;;;;;;;8.70;4.30;;;17.30;99.90;;;;;;5072740;28;20055;-80
2022/11/01 02:24:55;;;;;;;7.03;3.90;;;17.30;99.90;;;;;;5069500;28;20186;-80
2022/11/01 02:27:24;;;;;;;9.97;4.33;;;17.30;99.90;;;;;;5073262;28;20386;-80
2022/11/01 02:30:20;;;;;;;7.45;4.07;;;17.20;99.90;;;;;;5073293;28;20310;-80
2022/11/01 02:32:55;;;;;;;9.07;4.27;;;17.30;99.90;;;;;;5071935;28;20498;-81
2022/11/01 02:35:39;;;;;;;9.25;3.92;;;17.40;99.90;;;;;;5073122;28;20270;-81
2022/11/01 02:38:20;;;;;;;10.20;4.00;;;17.50;99.90;;;;;;5073582;28;20077;-80
2022/11/01 02:40:58;;;;;;;9.10;3.90;;;17.60;99.90;;;;;;5073270;28;20051;-80
2022/11/01 02:43:33;;;;;;;7.18;3.97;;;17.60;99.90;;;;;;5073220;28;20069;-81
2022/11/01 02:46:59;;;;;;;6.82;3.78;;;17.60;99.90;;;;;;5071585;28;20031;-81
2022/11/01 02:48:51;;;;;;;7.18;3.92;;;17.60;99.90;;;;;;5072860;28;20075;-79
2022/11/01 02:51:23;;;;;;;7.03;3.63;;;17.60;99.90;;;;;;5072999;28;20048;-79
2022/11/01 02:53:49;;;;;;;9.00;3.83;;;17.70;99.90;;;;;;5073219;28;20063;-78
2022/11/01 02:56:18;;;;;;;7.05;3.58;;;17.80;99.90;;;;;;5072625;28;20451;-80
2022/11/01 02:58:47;;;;;;;6.80;3.50;;;17.80;99.90;;;;;;5073219;28;20036;-79
2022/11/01 03:01:21;;;;;;;5.53;3.47;;;17.90;99.90;;;;;;5072953;28;20032;-79
2022/11/01 03:03:51;;;;;;;9.68;4.07;;;17.90;99.90;;;;;;5072933;28;20032;-80
2022/11/01 03:06:38;;;;;;;6.43;3.38;;;17.90;99.90;;;;;;5072831;28;20149;-79
2022/11/01 03:09:09;;;;;;;9.82;4.32;;;17.80;99.90;;;;;;5072686;28;20476;-79
2022/11/01 03:11:57;;;;;;;9.25;3.70;;;17.80;99.90;;;;;;5072770;28;20051;-79
2022/11/01 03:14:27;;;;;;;7.28;3.92;;;17.70;99.90;;;;;;5073216;28;20341;-79
2022/11/01 03:17:06;;;;;;;6.75;3.92;;;17.60;99.90;;;;;;5072779;28;20024;-80
2022/11/01 03:19:50;;;;;;;9.27;4.10;;;17.60;99.90;;;;;;5072487;28;20041;-78
2022/11/01 03:22:25;;;;;;;11.05;3.65;;;17.60;99.90;;;;;;5070988;28;20021;-79
2022/11/01 03:28:05;;;;;;;9.38;4.07;;;17.50;99.90;;;;;;5072216;28;20065;-79
2022/11/01 03:30:33;;;;;;;7.95;3.50;;;17.50;99.90;;;;;;5072259;28;20020;-79
2022/11/01 03:33:02;;;;;;;12.57;3.80;;;17.40;99.90;;;;;;5070613;28;20132;-80
2022/11/01 03:35:37;;;;;;;6.72;3.78;;;17.40;99.90;;;;;;5071778;28;20056;-79
2022/11/01 03:38:09;;;;;;;6.55;3.58;;;17.50;99.90;;;;;;5072230;28;20075;-79
2022/11/01 03:40:40;;;;;;;7.68;3.55;;;17.40;99.90;;;;;;5072246;28;20024;-81
2022/11/01 03:43:11;;;;;;;10.35;3.60;;;17.40;99.90;;;;;;5072160;28;20056;-79
2022/11/01 03:45:41;;;;;;;7.88;3.25;;;17.40;99.90;;;;;;5071776;28;20353;-80
2022/11/01 03:48:08;;;;;;;8.43;3.80;;;17.40;99.90;;;;;;5072166;28;20028;-79
2022/11/01 03:50:34;;;;;;;9.23;3.20;;;17.50;99.90;;;;;;5071856;28;20024;-80
2022/11/01 03:53:00;;;;;;;5.55;3.28;;;17.50;99.90;;;;;;5071597;28;20021;-81
2022/11/01 03:55:26;;;;;;;6.63;3.60;;;17.50;99.90;;;;;;5071608;28;20389;-80
2022/11/01 03:57:57;;;;;;;6.32;3.38;;;17.50;99.90;;;;;;5070140;28;20298;-81
2022/11/01 04:00:35;;;;;;;8.13;3.65;;;17.50;99.90;;;;;;5071462;28;20035;-81
2022/11/01 04:03:01;;;;;;;6.32;3.20;;;17.60;99.90;;;;;;5071707;28;20028;-79
2022/11/01 04:05:30;;;;;;;7.30;3.45;;;17.60;99.90;;;;;;5071578;28;20564;-81
2022/11/01 04:07:56;;;;;;;5.65;3.05;;;17.60;99.90;;;;;;5071669;28;20021;-81
2022/11/01 04:10:24;;;;;;;7.97;3.22;;;17.50;99.90;;;;;;5072011;28;20067;-80
2022/11/01 04:12:54;;;;;;;8.27;3.00;;;17.50;99.90;;;;;;5070811;28;20469;-79
2022/11/01 04:21:25;;;;;;;9.15;3.25;;;17.70;99.90;;;;;;5071283;28;20058;-79
2022/11/01 04:23:51;;;;;;;5.70;3.30;;;17.70;99.90;;;;;;5071651;28;20166;-80
2022/11/01 04:26:20;;;;;;;6.85;3.17;;;17.60;99.90;;;;;;5071410;28;20035;-80
2022/11/01 04:28:57;;;;;;;9.50;3.05;;;17.60;99.90;;;;;;5070604;28;20029;-80
2022/11/01 04:31:31;;;;;;;9.90;3.20;;;17.60;99.90;;;;;;5071790;28;20024;-79
2022/11/01 04:33:58;;;;;;;7.60;3.40;;;17.50;99.90;;;;;;5071613;28;20030;-80
2022/11/01 04:36:26;;;;;;;8.52;3.40;;;17.40;99.90;;;;;;5071254;28;20055;-81
2022/11/01 04:38:56;;;;;;;7.82;3.20;;;17.40;99.90;;;;;;5071556;28;20044;-80
2022/11/01 04:41:25;;;;;;;6.90;3.10;;;17.40;99.90;;;;;;5070777;28;20027;-81
2022/11/01 04:43:57;;;;;;;8.45;3.00;;;17.30;99.90;;;;;;5070086;28;20115;-81
2022/11/01 04:46:23;;;;;;;9.13;3.22;;;17.30;99.90;;;;;;5070737;28;20384;-78
2022/11/01 04:48:50;;;;;;;8.35;3.40;;;17.20;99.90;;;;;;5071324;28;20108;-80
2022/11/01 04:51:17;;;;;;;13.80;3.75;;;17.10;99.90;;;;;;5070905;28;20103;-80
2022/11/01 04:53:43;;;;;;;10.18;3.15;;;17.10;99.90;;;;;;5071289;28;20101;-80
2022/11/01 04:56:13;;;;;;;8.20;3.65;;;17.00;99.90;;;;;;5070938;28;20052;-81
2022/11/01 04:58:39;;;;;;;5.70;3.15;;;17.00;99.90;;;;;;5071026;28;20358;-80
2022/11/01 05:01:06;;;;;;;9.02;3.22;;;17.00;99.90;;;;;;5071057;28;20050;-81
2022/11/01 05:03:33;;;;;;;8.48;3.08;;;17.00;99.90;;;;;;5070798;28;20427;-78
2022/11/01 05:05:59;;;;;;;;;;;17.00;99.90;;;;;;5071545;28;20036;-80
2022/11/01 05:08:25;;;;;;;7.18;3.38;;;16.90;99.90;;;;;;5071025;28;19950;-78
2022/11/01 05:10:53;;;;;;;9.85;3.38;;;16.90;99.90;;;;;;5061792;28;20486;-80
2022/11/01 05:13:20;;;;;;;9.02;3.30;;;16.90;99.90;;;;;;5070026;28;20070;-81
2022/11/01 05:15:46;;;;;;;5.95;2.85;;;16.90;99.90;;;;;;5084222;28;20027;-79
2022/11/01 05:18:14;;;;;;;5.00;2.57;;;17.00;99.90;;;;;;5071070;28;20039;-79
2022/11/01 05:20:40;;;;;;;6.05;2.97;;;17.10;99.90;;;;;;5089146;28;20021;-80
2022/11/01 05:23:07;;;;;;;6.60;3.00;;;17.10;99.90;;;;;;5090878;28;20154;-78
2022/11/01 05:25:33;;;;;;;6.13;2.80;;;17.20;99.90;;;;;;5091132;28;20083;-79
2022/11/01 05:28:07;;;;;;;7.10;2.80;;;17.30;99.90;;;;;;5091052;28;20016;-79
2022/11/01 05:30:35;;;;;;;7.68;2.80;;;17.30;99.90;;;;;;5089166;28;20082;-79
2022/11/01 05:33:03;;;;;;;5.50;3.10;;;17.40;99.90;;;;;;5090908;28;20025;-78
2022/11/01 05:35:31;;;;;;;6.22;2.53;;;17.40;99.90;;;;;;5090353;28;20508;-79
2022/11/01 05:37:59;;;;;;;9.90;2.60;;;17.40;99.90;;;;;;5090894;28;20035;-80
2022/11/01 05:40:26;;;;;;;7.93;2.83;;;17.40;99.90;;;;;;5066486;28;20024;-81
2022/11/01 05:42:53;;;;;;;7.72;2.72;;;17.40;99.90;;;;;;5059928;28;20143;-80
2022/11/01 05:45:19;;;;;;;5.03;2.70;;;17.40;99.90;;;;;;5060867;28;20392;-80
2022/11/01 05:47:46;;;;;;;8.07;2.97;;;17.50;99.90;;;;;;5057670;28;20044;-78
2022/11/01 05:50:14;;;;;;;6.10;2.58;;;17.50;99.90;;;;;;5059806;28;20028;-80
2022/11/01 05:52:41;;;;;;;6.28;3.03;;;17.70;99.90;;;;;;5060827;28;20025;-79
2022/11/01 05:55:10;;;;;;;8.00;2.60;;;17.90;99.90;;;;;;5066279;28;20456;-80
2022/11/01 05:57:36;;;;;;;5.70;2.85;;;18.30;99.90;;;;;;5073924;28;20054;-77
2022/11/01 06:00:05;;;;;;;4.65;2.47;;;18.90;99.90;;;;;;5073872;28;20509;-80
2022/11/01 06:02:32;;;;;;;6.32;3.33;;;19.50;99.90;;;;;;5074150;28;20016;-79
2022/11/01 06:04:58;;;;;;;;;;;20.00;99.90;;;;;;5074479;28;20027;-79
2022/11/01 06:07:26;;;;;;;7.07;2.40;;;20.50;99.90;;;;;;5073824;28;20451;-80
2022/11/01 06:09:52;;;;;;;5.32;2.30;;;20.90;99.90;;;;;;5072203;28;20042;-79
2022/11/01 06:12:18;;;;;;;9.82;2.53;;;21.50;99.90;;;;;;5073819;28;20020;-80
2022/11/01 06:14:45;;;;;;;6.25;2.45;;;22.10;99.90;;;;;;5074770;28;20035;-79
2022/11/01 06:17:12;;;;;;;6.93;2.50;;;22.50;99.90;;;;;;5074011;28;20031;-79
2022/11/01 06:19:38;;;;;;;6.18;2.50;;;23.00;99.90;;;;;;5072031;28;20082;-78
2022/11/01 06:22:06;;;;;;;5.05;2.40;;;23.10;99.90;;;;;;5074104;28;20024;-79
2022/11/01 06:24:33;;;;;;;6.78;2.67;;;23.00;99.90;;;;;;5073518;28;20033;-77
2022/11/01 06:27:00;;;;;;;7.13;2.55;;;23.30;99.90;;;;;;5073606;28;20107;-75
2022/11/01 06:29:26;;;;;;;4.43;2.35;;;23.50;99.90;;;;;;5073521;28;20426;-79
2022/11/01 06:31:53;;;;;;;4.35;2.05;;;23.50;99.90;;;;;;5068865;28;20021;-78
2022/11/01 06:34:19;;;;;;;6.95;2.20;;;23.70;99.90;;;;;;5052899;28;20028;-76
2022/11/01 06:36:45;;;;;;;6.45;2.33;;;23.30;99.90;;;;;;5052311;28;20400;-78
2022/11/01 06:39:11;;;;;;;5.55;2.20;;;23.30;99.90;;;;;;5053333;28;20507;-84
2022/11/01 06:41:37;;;;;;;5.15;2.53;;;23.10;99.90;;;;;;5053598;28;20029;-79
2022/11/01 06:44:03;;;;;;;7.45;2.50;;;22.80;99.90;;;;;;5053232;28;20079;-74
2022/11/01 06:46:30;;;;;;;7.85;2.88;;;23.00;99.90;;;;;;5053095;28;20017;-74
2022/11/01 06:48:56;;;;;;;6.45;2.70;;;22.90;99.90;;;;;;5052890;28;20064;-75
2022/11/01 06:51:22;;;;;;;7.93;2.70;;;23.10;99.90;;;;;;5053365;28;20040;-73
2022/11/01 06:53:48;;;;;;;;;;;23.30;99.90;;;;;;5053139;28;20104;-74
2022/11/01 06:56:14;;;;;;;5.30;2.58;;;23.70;99.90;;;;;;5052934;28;20387;-76
2022/11/01 06:58:40;;;;;;;7.72;2.72;;;24.20;99.90;;;;;;5050991;28;20491;-73
2022/11/01 07:01:06;;;;;;;3.85;2.42;;;24.60;99.90;;;;;;5052687;28;20299;-74
2022/11/01 07:03:32;;;;;;;4.57;2.70;;;25.10;99.90;;;;;;5051075;28;20048;-73
2022/11/01 07:05:59;;;;;;;5.47;2.45;;;25.90;99.90;;;;;;5052458;28;20203;-73
2022/11/01 07:08:25;;;;;;;5.45;2.50;;;26.50;99.90;;;;;;5052486;28;20063;-75
2022/11/01 07:10:57;;;;;;;9.23;2.53;;;27.20;99.90;;;;;;5051126;28;20047;-74
2022/11/01 07:13:23;;;;;;;8.35;2.47;;;28.00;99.40;;;;;;5051748;28;20392;-75
2022/11/01 07:15:49;;;;;;;5.15;2.38;;;28.70;99.30;;;;;;5052462;28;20493;-75
2022/11/01 07:18:15;;;;;;;4.78;2.30;;;28.80;99.20;;;;;;5052510;28;20343;-73
2022/11/01 07:20:41;;;;;;;4.97;2.20;;;29.50;98.60;;;;;;5052764;28;20021;-80
2022/11/01 07:23:15;;;;;;;8.13;2.40;;;29.20;98.20;;;;;;5052791;28;20024;-79
2022/11/01 07:25:43;;;;;;;6.47;2.38;;;27.70;98.70;;;;;;5081145;28;20491;-76
2022/11/01 07:28:15;;;;;;;9.68;2.83;;;26.80;99.70;;;;;;5093084;28;20058;-81
2022/11/01 07:30:42;;;;;;;6.15;2.38;;;25.90;99.90;;;;;;5092819;28;20072;-81
2022/11/01 07:33:09;;;;;;;10.38;2.80;;;25.40;99.90;;;;;;5091489;28;20056;-81
2022/11/01 07:35:35;;;;;;;5.10;2.53;;;25.00;99.90;;;;;;5092942;28;20481;-82
2022/11/01 07:38:05;;;;;;;7.70;2.95;;;24.60;99.90;;;;;;5092896;28;20024;-84
2022/11/01 07:40:31;;;;;;;5.88;2.47;;;24.20;99.90;;;;;;5092468;28;20024;-82
2022/11/01 07:42:59;;;;;;;7.97;2.30;;;24.20;99.90;;;;;;5092698;28;20024;-83
2022/11/01 07:45:28;;;;;;;6.25;2.53;;;24.00;99.90;;;;;;5092526;28;20016;-81
2022/11/01 07:48:01;;;;;;;6.05;2.70;;;23.80;99.90;;;;;;5092389;28;20084;-82
2022/11/01 07:50:29;;;;;;;11.63;2.72;;;23.60;99.90;;;;;;5092105;28;20027;-80
2022/11/01 07:53:16;;;;;;;7.20;2.90;;;23.60;99.90;;;;;;5092481;28;20440;-82
2022/11/01 07:55:43;;;;;;;6.40;2.75;;;23.50;99.90;;;;;;5092588;28;20110;-83
2022/11/01 07:58:11;;;;;;;8.82;3.00;;;23.50;99.90;;;;;;5091891;28;20111;-83
2022/11/01 08:00:38;;;;;;;6.97;2.40;;;23.50;99.90;;;;;;5092544;28;20124;-82
2022/11/01 08:03:08;;;;;;;6.20;2.60;;;23.50;99.90;;;;;;5092454;28;20487;-84
2022/11/01 08:05:35;;;;;;;4.55;2.40;;;23.50;99.90;;;;;;5091900;28;20059;-85
2022/11/01 08:08:01;;;;;;;9.45;2.80;;;23.50;99.90;;;;;;5091242;28;20451;-83
2022/11/01 08:10:29;;;;;;;6.22;2.50;;;23.60;99.90;;;;;;5092524;28;20024;-81
2022/11/01 08:13:06;;;;;;;7.20;2.83;;;23.70;99.90;;;;;;5091997;28;20081;-84
2022/11/01 08:15:33;;;;;;;8.30;2.55;;;23.80;99.90;;;;;;5089856;28;20483;-82
2022/11/01 08:17:59;;;;;;;8.57;2.80;;;23.80;99.90;;;;;;5091632;28;20028;-84
2022/11/01 08:20:26;;;;;;;7.47;2.67;;;23.80;99.90;;;;;;5092417;28;20116;-83
2022/11/01 08:22:52;;;;;;;;;;;23.80;99.90;;;;;;5090977;28;20408;-82
2022/11/01 08:25:19;;;;;;;5.30;2.55;;;23.70;99.90;;;;;;5091902;28;19904;-83
2022/11/01 08:27:45;;;;;;;;;;;23.60;99.90;;;;;;5091963;28;20031;-81
2022/11/01 08:30:13;;;;;;;5.18;2.42;;;23.80;99.90;;;;;;5092144;28;19911;-82
2022/11/01 08:32:40;;;;;;;8.27;2.63;;;24.00;99.90;;;;;;5091920;28;20074;-82
2022/11/01 08:35:07;;;;;;;5.57;2.67;;;24.40;99.90;;;;;;5090352;28;20123;-80
2022/11/01 08:37:34;;;;;;;6.35;2.65;;;24.50;99.90;;;;;;5090749;28;20476;-81
2022/11/01 08:40:02;;;;;;;18.05;3.85;;;24.50;99.90;;;;;;5092367;28;20032;-81
2022/11/01 08:42:29;;;;;;;12.13;3.40;;;24.40;99.90;;;;;;5074256;28;20052;-81
2022/11/01 08:44:55;;;;;;;8.90;3.20;;;24.60;99.90;;;;;;5092049;28;20028;-80
2022/11/01 08:47:21;;;;;;;9.20;3.35;;;24.40;99.90;;;;;;5090306;28;20032;-81
2022/11/01 08:49:47;;;;;;;6.38;2.20;;;24.70;99.90;;;;;;5091423;28;20028;-79
2022/11/01 08:52:13;;;;;;;8.65;3.30;;;24.80;99.90;;;;;;5091700;28;20047;-79
2022/11/01 08:54:42;;;;;;;4.63;2.10;;;24.80;99.90;;;;;;5091810;28;20028;-80
2022/11/01 08:57:09;;;;;;;6.97;2.40;;;24.90;99.90;;;;;;5091584;28;20107;-81
2022/11/01 08:59:35;;;;;;;7.63;2.80;;;24.70;99.90;;;;;;5090072;28;20105;-80
2022/11/01 09:02:02;;;;;;;7.43;2.40;;;24.90;99.90;;;;;;5091325;28;20020;-80
2022/11/01 09:04:30;;;;;;;9.48;2.72;;;24.80;99.90;;;;;;5091575;28;20079;-81
2022/11/01 09:06:56;;;;;;;6.60;2.67;;;24.50;99.90;;;;;;5091243;28;20025;-81
2022/11/01 09:09:22;;;;;;;6.15;2.60;;;24.40;99.90;;;;;;5089844;28;20198;-79
2022/11/01 09:11:48;;;;;;;4.78;2.72;;;24.60;99.90;;;;;;5091564;28;20509;-81
2022/11/01 09:14:14;;;;;;;4.38;2.53;;;24.60;99.90;;;;;;5091134;28;20047;-73
2022/11/01 09:16:40;;;;;;;6.22;2.60;;;24.50;99.90;;;;;;5091072;28;20105;-79
2022/11/01 09:19:06;;;;;;;6.55;2.50;;;24.40;99.90;;;;;;5091492;28;20047;-81
2022/11/01 09:21:32;;;;;;;7.18;2.40;;;24.60;99.90;;;;;;5091959;28;20135;-79
2022/11/01 09:23:59;;;;;;;4.35;2.22;;;24.60;99.90;;;;;;5091611;28;20039;-78
2022/11/01 09:26:26;;;;;;;6.63;2.70;;;24.90;99.90;;;;;;5092076;28;20032;-80
2022/11/01 09:28:54;;;;;;;14.23;3.10;;;25.10;99.90;;;;;;5095174;28;20400;-81
2022/11/01 09:31:21;;;;;;;9.15;3.08;;;25.30;99.90;;;;;;5095155;28;20020;-80
2022/11/01 09:33:47;;;;;;;8.80;3.05;;;25.20;99.90;;;;;;5095750;28;20027;-80
2022/11/01 09:36:13;;;;;;;8.23;3.40;;;25.40;99.90;;;;;;5095152;28;20076;-79
2022/11/01 09:38:39;;;;;;;6.90;3.20;;;25.50;99.90;;;;;;5095751;28;20110;-80
2022/11/01 09:41:16;;;;;;;7.45;3.20;;;25.60;99.90;;;;;;5095481;28;20455;-80
2022/11/01 09:43:44;;;;;;;7.82;3.10;;;25.50;99.90;;;;;;5095773;28;20035;-79
2022/11/01 09:46:17;;;;;;;9.75;3.53;;;25.40;99.90;;;;;;5095348;28;20016;-75
2022/11/01 09:48:45;;;;;;;8.70;3.35;;;25.40;99.90;;;;;;5095423;28;20429;-79
2022/11/01 09:51:19;;;;;;;6.80;3.50;;;25.40;99.90;;;;;;5094785;28;20488;-80
2022/11/01 09:53:46;;;;;;;5.90;2.90;;;25.50;99.90;;;;;;5088746;28;20028;-76
2022/11/01 09:56:33;;;;;;;11.15;3.25;;;25.60;99.90;;;;;;5068798;28;20032;-79
2022/11/01 09:59:18;;;;;;;6.90;2.83;;;25.70;99.90;;;;;;5074533;28;20037;-78
2022/11/01 10:02:04;;;;;;;9.00;3.25;;;25.90;99.90;;;;;;5074510;28;20075;-78
2022/11/01 10:04:50;;;;;;;9.15;3.40;;;25.90;99.90;;;;;;5073258;28;20024;-79
2022/11/01 10:07:41;;;;;;;6.88;2.85;;;25.50;99.90;;;;;;5074690;28;20107;-79
2022/11/01 10:10:37;;;;;;;8.68;3.20;;;25.70;99.90;;;;;;5074655;28;20024;-79
2022/11/01 10:13:23;;;;;;;9.93;4.57;;;25.80;99.90;;;;;;5072273;28;20355;-79
2022/11/01 10:16:12;;;;;;;14.48;6.30;;;25.70;99.90;;;;;;5073489;28;20029;-79
2022/11/01 10:19:07;;;;;;;11.63;5.30;;;25.70;99.90;;;;;;5073277;28;20123;-80
2022/11/01 10:21:59;;;;;;;17.48;5.93;;;25.80;99.90;;;;;;5062181;28;20044;-79
2022/11/01 10:24:40;;;;;;;14.27;6.85;;;26.00;99.90;;;;;;5074220;28;20013;-80
2022/11/01 10:27:44;;;;;;;26.27;10.90;;;26.10;99.90;;;;;;5074694;28;20457;-79
2022/11/01 10:30:17;;;;;;;17.67;7.15;;;26.10;99.90;;;;;;5074637;28;20046;-79
2022/11/01 10:32:53;;;;;;;10.13;4.22;;;26.00;99.90;;;;;;5074155;28;20078;-79
2022/11/01 10:35:28;;;;;;;8.05;3.05;;;26.00;99.90;;;;;;5073613;28;20040;-79
2022/11/01 10:38:15;;;;;;;7.38;2.90;;;26.00;99.90;;;;;;5074002;28;20021;-79
2022/11/01 10:40:50;;;;;;;8.40;3.35;;;25.80;99.90;;;;;;5073799;28;20024;-80
2022/11/01 10:43:19;;;;;;;9.27;3.50;;;25.70;99.90;;;;;;5072586;28;20028;-79
2022/11/01 10:45:48;;;;;;;10.50;3.50;;;25.90;99.90;;;;;;5072478;28;20502;-79
2022/11/01 10:48:28;;;;;;;13.60;3.65;;;26.00;99.90;;;;;;5074126;28;20056;-78
2022/11/01 10:50:58;;;;;;;8.55;2.92;;;26.10;99.90;;;;;;5072468;28;20106;-79
2022/11/01 10:53:32;;;;;;;10.10;3.00;;;26.10;99.90;;;;;;5073549;28;20016;-79
2022/11/01 10:56:04;;;;;;;9.60;3.05;;;26.00;99.90;;;;;;5073212;28;20116;-80
2022/11/01 10:58:38;;;;;;;8.98;3.10;;;26.10;99.90;;;;;;5073635;28;20416;-79
2022/11/01 11:01:08;;;;;;;7.40;2.95;;;26.20;99.90;;;;;;5073694;28;20460;-79
2022/11/01 11:03:37;;;;;;;7.57;3.55;;;26.20;99.90;;;;;;5073650;28;20020;-79
2022/11/01 11:06:08;;;;;;;8.07;3.28;;;26.30;99.90;;;;;;5073191;28;20492;-80
2022/11/01 11:08:44;;;;;;;6.78;3.00;;;26.20;99.90;;;;;;5072943;28;20044;-79
2022/11/01 11:11:25;;;;;;;7.18;3.10;;;26.20;99.90;;;;;;5073473;28;20017;-80
2022/11/01 11:13:54;;;;;;;9.02;3.33;;;26.20;99.90;;;;;;5073092;28;20039;-78
2022/11/01 11:16:38;;;;;;;7.18;3.47;;;26.40;99.90;;;;;;5073773;28;20061;-78
2022/11/01 11:19:07;;;;;;;7.30;3.20;;;26.50;99.90;;;;;;5072862;28;20086;-78
2022/11/01 11:21:35;;;;;;;8.70;3.40;;;26.50;99.90;;;;;;5072952;28;20036;-79
2022/11/01 11:24:02;;;;;;;10.15;3.30;;;26.50;99.90;;;;;;5072794;28;20028;-79
2022/11/01 11:26:37;;;;;;;10.13;3.55;;;26.60;99.90;;;;;;5071160;28;20032;-78
2022/11/01 11:29:04;;;;;;;;;;;26.50;99.90;;;;;;5073148;28;20036;-79
2022/11/01 11:31:32;;;;;;;;;;;26.70;99.90;;;;;;5073552;28;20352;-79
2022/11/01 11:34:31;;;;;;;7.68;3.20;;;26.80;99.90;;;;;;5072582;28;20037;-78
2022/11/01 11:36:59;;;;;;;8.35;3.25;;;26.80;99.90;;;;;;5073042;28;20040;-77
2022/11/01 11:39:31;;;;;;;7.60;3.33;;;26.80;99.90;;;;;;5072589;28;20039;-78
2022/11/01 11:42:32;;;;;;;9.07;3.30;;;26.80;99.90;;;;;;5072374;28;20028;-79
2022/11/01 11:45:26;;;;;;;9.30;3.10;;;27.00;99.90;;;;;;4990990;28;20415;-78
2022/11/01 11:47:55;;;;;;;6.53;3.13;;;27.10;99.90;;;;;;4990691;28;20039;-78
2022/11/01 11:50:32;;;;;;;5.68;2.95;;;27.20;99.90;;;;;;4996031;28;20101;-78
2022/11/01 11:53:22;;;;;;;5.13;2.53;;;27.10;99.90;;;;;;4997026;28;20483;-79
2022/11/01 11:56:02;;;;;;;7.88;2.53;;;27.20;99.10;;;;;;4972376;28;20039;-78
2022/11/01 11:58:43;;;;;;;7.60;3.10;;;27.10;99.40;;;;;;4971383;28;20034;-79
2022/11/01 12:01:19;;;;;;;7.45;2.70;;;27.30;99.30;;;;;;4971783;28;20115;-79
2022/11/01 12:03:51;;;;;;;9.85;2.83;;;27.30;99.40;;;;;;4971351;28;20062;-79
2022/11/01 12:06:44;;;;;;;8.73;2.70;;;27.40;99.80;;;;;;4968739;28;20043;-79
2022/11/01 12:09:46;;;;;;;7.57;2.95;;;27.50;99.90;;;;;;4965432;28;20408;-78
2022/11/01 12:12:25;;;;;;;7.05;2.83;;;27.60;99.90;;;;;;4994128;28;20537;-77
2022/11/01 12:14:53;;;;;;;7.80;2.90;;;27.40;99.90;;;;;;5004356;28;20070;-79
2022/11/01 12:17:35;;;;;;;6.10;2.67;;;27.60;99.90;;;;;;5001295;28;20026;-79
2022/11/01 12:20:20;;;;;;;8.75;3.10;;;27.70;99.90;;;;;;5014924;28;20052;-78
2022/11/01 12:23:09;;;;;;;10.48;3.00;;;27.40;99.90;;;;;;5083077;28;20031;-79
2022/11/01 12:25:37;;;;;;;6.93;2.90;;;27.40;99.90;;;;;;5090770;28;20039;-80
2022/11/01 12:28:12;;;;;;;9.38;3.20;;;27.50;99.90;;;;;;5092476;28;20043;-80
2022/11/01 12:30:41;;;;;;;11.93;3.10;;;27.50;99.90;;;;;;5092383;28;20456;-79
2022/11/01 12:33:26;;;;;;;5.85;2.90;;;27.30;99.90;;;;;;5092202;28;20052;-79
2022/11/01 12:35:53;;;;;;;10.75;3.47;;;27.40;99.90;;;;;;5051731;28;20045;-78
2022/11/01 12:38:41;;;;;;;10.57;3.20;;;27.40;99.90;;;;;;5051975;28;20029;-78
2022/11/01 12:41:32;;;;;;;7.25;3.58;;;27.50;99.90;;;;;;5077967;28;20036;-78
2022/11/01 12:44:25;;;;;;;10.68;3.50;;;27.40;99.90;;;;;;5092049;28;20032;-79
2022/11/01 12:47:09;;;;;;;9.68;3.45;;;27.20;99.90;;;;;;5092408;28;20034;-79
2022/11/01 12:49:54;;;;;;;8.73;3.67;;;27.10;99.90;;;;;;5091655;28;20040;-79
2022/11/01 12:52:57;;;;;;;9.65;3.13;;;27.20;99.90;;;;;;5092143;28;20028;-78
2022/11/01 12:55:24;;;;;;;11.57;3.75;;;27.20;99.90;;;;;;5091543;28;20056;-80
2022/11/01 12:57:53;;;;;;;9.50;3.63;;;27.20;99.90;;;;;;5091316;28;20055;-79
2022/11/01 13:00:22;;;;;;;9.63;3.20;;;27.00;99.90;;;;;;5091498;28;20085;-79
2022/11/01 13:03:07;;;;;;;9.32;3.28;;;26.90;99.90;;;;;;5075360;28;20025;-79
2022/11/01 13:06:02;;;;;;;11.00;3.70;;;27.00;99.90;;;;;;5096081;28;20047;-79
2022/11/01 13:08:31;;;;;;;9.95;3.95;;;27.00;99.90;;;;;;5033887;28;20120;-79
2022/11/01 13:11:17;;;;;;;9.10;3.97;;;27.00;99.90;;;;;;5016597;28;20128;-79
2022/11/01 13:13:56;;;;;;;12.35;3.38;;;26.60;99.90;;;;;;5018214;28;20211;-78
2022/11/01 13:16:31;;;;;;;10.25;3.42;;;26.50;99.90;;;;;;5016454;28;20029;-80
2022/11/01 13:19:15;;;;;;;9.35;3.55;;;26.70;99.90;;;;;;5032847;28;20045;-79
2022/11/01 13:21:56;;;;;;;12.55;3.70;;;26.70;99.90;;;;;;5033418;28;20104;-77